TAF and METAR

Decoding for American and Canadian METARs and TAFs is not fully implemented.

Could not understand the following METAR

BGTL 180156Z AUTO 12008KT 9999 OVC070 M11/M11 A2956 RMK AO2 SLP999 T11111113 TSNO $
No TAF available for Thule Air Base